sensor_id;sensor_type;location;lat;lon;timestamp;P1;durP1;ratioP1;P2;durP2;ratioP2
56718;SDS011;42597;40.636;0.278;2022-08-25T00:01:20;15.38;;;4.65;;
56718;SDS011;42597;40.636;0.278;2022-08-25T00:03:51;12.98;;;4.78;;
56718;SDS011;42597;40.636;0.278;2022-08-25T00:06:17;17.45;;;4.53;;
56718;SDS011;42597;40.636;0.278;2022-08-25T00:08:43;11.98;;;4.53;;
56718;SDS011;42597;40.636;0.278;2022-08-25T00:11:10;13.50;;;3.97;;
56718;SDS011;42597;40.636;0.278;2022-08-25T00:13:41;14.48;;;4.63;;
56718;SDS011;42597;40.636;0.278;2022-08-25T00:16:13;15.80;;;3.97;;
56718;SDS011;42597;40.636;0.278;2022-08-25T00:18:41;11.27;;;4.10;;
56718;SDS011;42597;40.636;0.278;2022-08-25T00:21:09;10.48;;;3.97;;
56718;SDS011;42597;40.636;0.278;2022-08-25T00:23:36;15.43;;;4.78;;
56718;SDS011;42597;40.636;0.278;2022-08-25T00:26:02;15.07;;;3.63;;
56718;SDS011;42597;40.636;0.278;2022-08-25T00:28:28;13.35;;;4.95;;
56718;SDS011;42597;40.636;0.278;2022-08-25T00:30:55;17.80;;;5.05;;
56718;SDS011;42597;40.636;0.278;2022-08-25T00:33:22;12.38;;;4.45;;
56718;SDS011;42597;40.636;0.278;2022-08-25T00:35:50;13.25;;;4.03;;
56718;SDS011;42597;40.636;0.278;2022-08-25T00:38:16;16.15;;;4.30;;
56718;SDS011;42597;40.636;0.278;2022-08-25T00:40:42;12.48;;;3.38;;
56718;SDS011;42597;40.636;0.278;2022-08-25T00:43:08;15.30;;;4.35;;
56718;SDS011;42597;40.636;0.278;2022-08-25T00:45:34;12.38;;;4.55;;
56718;SDS011;42597;40.636;0.278;2022-08-25T00:48:00;22.05;;;3.78;;
56718;SDS011;42597;40.636;0.278;2022-08-25T00:50:27;9.80;;;3.85;;
56718;SDS011;42597;40.636;0.278;2022-08-25T00:52:55;10.90;;;4.32;;
56718;SDS011;42597;40.636;0.278;2022-08-25T00:55:33;16.40;;;4.38;;
56718;SDS011;42597;40.636;0.278;2022-08-25T00:58:09;13.38;;;4.15;;
56718;SDS011;42597;40.636;0.278;2022-08-25T01:00:41;10.98;;;3.80;;
56718;SDS011;42597;40.636;0.278;2022-08-25T01:03:09;15.57;;;4.05;;
56718;SDS011;42597;40.636;0.278;2022-08-25T01:05:36;7.10;;;3.63;;
56718;SDS011;42597;40.636;0.278;2022-08-25T01:08:03;16.90;;;3.95;;
56718;SDS011;42597;40.636;0.278;2022-08-25T01:10:30;15.80;;;3.92;;
56718;SDS011;42597;40.636;0.278;2022-08-25T01:13:02;14.13;;;4.63;;
56718;SDS011;42597;40.636;0.278;2022-08-25T01:15:32;9.90;;;3.63;;
56718;SDS011;42597;40.636;0.278;2022-08-25T01:17:58;11.82;;;4.05;;
56718;SDS011;42597;40.636;0.278;2022-08-25T01:20:26;9.15;;;3.80;;
56718;SDS011;42597;40.636;0.278;2022-08-25T01:22:53;9.80;;;3.53;;
56718;SDS011;42597;40.636;0.278;2022-08-25T01:25:42;12.25;;;4.28;;
56718;SDS011;42597;40.636;0.278;2022-08-25T01:28:10;9.05;;;4.15;;
56718;SDS011;42597;40.636;0.278;2022-08-25T01:30:36;15.65;;;3.67;;
56718;SDS011;42597;40.636;0.278;2022-08-25T01:33:05;15.98;;;4.15;;
56718;SDS011;42597;40.636;0.278;2022-08-25T01:35:32;10.75;;;4.07;;
56718;SDS011;42597;40.636;0.278;2022-08-25T01:37:59;13.05;;;4.22;;
56718;SDS011;42597;40.636;0.278;2022-08-25T01:40:26;11.80;;;3.80;;
56718;SDS011;42597;40.636;0.278;2022-08-25T01:45:36;10.10;;;3.33;;
56718;SDS011;42597;40.636;0.278;2022-08-25T01:57:14;8.02;;;3.45;;
56718;SDS011;42597;40.636;0.278;2022-08-25T02:03:17;12.25;;;3.28;;
56718;SDS011;42597;40.636;0.278;2022-08-25T02:05:46;8.65;;;3.35;;
56718;SDS011;42597;40.636;0.278;2022-08-25T02:14:56;11.40;;;4.13;;
56718;SDS011;42597;40.636;0.278;2022-08-25T02:20:31;10.90;;;3.10;;
56718;SDS011;42597;40.636;0.278;2022-08-25T02:22:57;7.55;;;2.92;;
56718;SDS011;42597;40.636;0.278;2022-08-25T02:32:06;13.30;;;3.20;;
56718;SDS011;42597;40.636;0.278;2022-08-25T02:34:31;8.98;;;2.97;;
56718;SDS011;42597;40.636;0.278;2022-08-25T02:47:02;9.88;;;3.60;;
56718;SDS011;42597;40.636;0.278;2022-08-25T02:49:28;6.95;;;2.47;;
56718;SDS011;42597;40.636;0.278;2022-08-25T02:51:54;7.70;;;2.90;;
56718;SDS011;42597;40.636;0.278;2022-08-25T02:54:40;7.32;;;3.08;;
56718;SDS011;42597;40.636;0.278;2022-08-25T02:57:06;8.75;;;2.75;;
56718;SDS011;42597;40.636;0.278;2022-08-25T02:59:31;8.77;;;3.33;;
56718;SDS011;42597;40.636;0.278;2022-08-25T03:01:57;17.38;;;4.05;;
56718;SDS011;42597;40.636;0.278;2022-08-25T03:04:23;7.82;;;3.17;;
56718;SDS011;42597;40.636;0.278;2022-08-25T03:06:49;12.52;;;3.03;;
56718;SDS011;42597;40.636;0.278;2022-08-25T03:09:15;8.23;;;2.92;;
56718;SDS011;42597;40.636;0.278;2022-08-25T03:11:41;5.70;;;2.50;;
56718;SDS011;42597;40.636;0.278;2022-08-25T03:14:07;11.10;;;2.90;;
56718;SDS011;42597;40.636;0.278;2022-08-25T03:16:35;6.45;;;2.47;;
56718;SDS011;42597;40.636;0.278;2022-08-25T03:19:01;7.18;;;2.95;;
56718;SDS011;42597;40.636;0.278;2022-08-25T03:21:27;6.40;;;2.67;;
56718;SDS011;42597;40.636;0.278;2022-08-25T03:23:54;7.45;;;2.70;;
56718;SDS011;42597;40.636;0.278;2022-08-25T03:26:20;9.00;;;3.10;;
56718;SDS011;42597;40.636;0.278;2022-08-25T03:29:05;6.35;;;2.22;;
56718;SDS011;42597;40.636;0.278;2022-08-25T03:31:32;8.70;;;2.47;;
56718;SDS011;42597;40.636;0.278;2022-08-25T03:33:59;6.38;;;2.92;;
56718;SDS011;42597;40.636;0.278;2022-08-25T03:36:25;6.45;;;2.50;;
56718;SDS011;42597;40.636;0.278;2022-08-25T03:38:52;4.60;;;2.42;;
56718;SDS011;42597;40.636;0.278;2022-08-25T03:43:48;5.10;;;2.80;;
56718;SDS011;42597;40.636;0.278;2022-08-25T03:46:15;10.13;;;2.75;;
56718;SDS011;42597;40.636;0.278;2022-08-25T03:48:43;8.18;;;3.05;;
56718;SDS011;42597;40.636;0.278;2022-08-25T03:51:09;5.43;;;2.30;;
56718;SDS011;42597;40.636;0.278;2022-08-25T03:53:34;7.10;;;2.42;;
56718;SDS011;42597;40.636;0.278;2022-08-25T03:56:00;6.88;;;2.40;;
56718;SDS011;42597;40.636;0.278;2022-08-25T03:58:25;6.22;;;2.42;;
56718;SDS011;42597;40.636;0.278;2022-08-25T04:00:51;4.32;;;2.22;;
56718;SDS011;42597;40.636;0.278;2022-08-25T04:03:17;5.25;;;2.28;;
56718;SDS011;42597;40.636;0.278;2022-08-25T04:05:43;5.60;;;2.42;;
56718;SDS011;42597;40.636;0.278;2022-08-25T04:08:08;7.72;;;2.72;;
56718;SDS011;42597;40.636;0.278;2022-08-25T04:10:35;8.90;;;2.30;;
56718;SDS011;42597;40.636;0.278;2022-08-25T04:13:01;8.95;;;2.20;;
56718;SDS011;42597;40.636;0.278;2022-08-25T04:15:27;7.43;;;2.45;;
56718;SDS011;42597;40.636;0.278;2022-08-25T04:17:52;6.45;;;2.47;;
56718;SDS011;42597;40.636;0.278;2022-08-25T04:20:18;6.13;;;2.47;;
56718;SDS011;42597;40.636;0.278;2022-08-25T04:22:44;4.43;;;2.10;;
56718;SDS011;42597;40.636;0.278;2022-08-25T04:25:09;7.75;;;2.67;;
56718;SDS011;42597;40.636;0.278;2022-08-25T04:27:35;5.50;;;1.98;;
56718;SDS011;42597;40.636;0.278;2022-08-25T04:30:01;6.00;;;2.85;;
56718;SDS011;42597;40.636;0.278;2022-08-25T04:32:27;5.57;;;2.47;;
56718;SDS011;42597;40.636;0.278;2022-08-25T04:34:53;5.82;;;2.25;;
56718;SDS011;42597;40.636;0.278;2022-08-25T04:37:18;6.97;;;2.55;;
56718;SDS011;42597;40.636;0.278;2022-08-25T04:39:44;10.18;;;2.30;;
56718;SDS011;42597;40.636;0.278;2022-08-25T04:42:09;8.63;;;2.33;;
56718;SDS011;42597;40.636;0.278;2022-08-25T04:44:35;8.75;;;2.35;;
56718;SDS011;42597;40.636;0.278;2022-08-25T04:47:00;6.53;;;2.10;;
56718;SDS011;42597;40.636;0.278;2022-08-25T04:49:26;4.25;;;1.98;;
56718;SDS011;42597;40.636;0.278;2022-08-25T04:51:52;5.85;;;2.33;;
56718;SDS011;42597;40.636;0.278;2022-08-25T04:54:18;5.78;;;2.35;;
56718;SDS011;42597;40.636;0.278;2022-08-25T04:59:14;4.38;;;2.35;;
56718;SDS011;42597;40.636;0.278;2022-08-25T05:01:42;7.18;;;2.33;;
56718;SDS011;42597;40.636;0.278;2022-08-25T05:04:09;5.22;;;1.85;;
56718;SDS011;42597;40.636;0.278;2022-08-25T05:06:36;11.27;;;2.47;;
56718;SDS011;42597;40.636;0.278;2022-08-25T05:09:02;6.38;;;2.45;;
56718;SDS011;42597;40.636;0.278;2022-08-25T05:11:28;9.50;;;2.75;;
56718;SDS011;42597;40.636;0.278;2022-08-25T05:13:55;10.93;;;2.60;;
56718;SDS011;42597;40.636;0.278;2022-08-25T05:16:22;3.92;;;2.30;;
56718;SDS011;42597;40.636;0.278;2022-08-25T05:18:49;9.35;;;2.80;;
56718;SDS011;42597;40.636;0.278;2022-08-25T05:21:17;6.50;;;2.25;;
56718;SDS011;42597;40.636;0.278;2022-08-25T05:23:45;9.25;;;3.10;;
56718;SDS011;42597;40.636;0.278;2022-08-25T05:26:15;8.00;;;2.65;;
56718;SDS011;42597;40.636;0.278;2022-08-25T05:28:42;5.47;;;2.30;;
56718;SDS011;42597;40.636;0.278;2022-08-25T05:31:09;5.25;;;2.70;;
56718;SDS011;42597;40.636;0.278;2022-08-25T05:33:36;6.28;;;2.83;;
56718;SDS011;42597;40.636;0.278;2022-08-25T05:36:03;6.63;;;2.88;;
56718;SDS011;42597;40.636;0.278;2022-08-25T05:38:29;4.88;;;2.42;;
56718;SDS011;42597;40.636;0.278;2022-08-25T05:40:58;4.68;;;2.47;;
56718;SDS011;42597;40.636;0.278;2022-08-25T05:43:26;9.65;;;2.78;;
56718;SDS011;42597;40.636;0.278;2022-08-25T05:45:53;6.97;;;2.85;;
56718;SDS011;42597;40.636;0.278;2022-08-25T05:48:19;8.50;;;2.85;;
56718;SDS011;42597;40.636;0.278;2022-08-25T05:50:59;5.18;;;2.47;;
56718;SDS011;42597;40.636;0.278;2022-08-25T05:53:28;7.18;;;2.63;;
56718;SDS011;42597;40.636;0.278;2022-08-25T05:55:55;7.82;;;2.45;;
56718;SDS011;42597;40.636;0.278;2022-08-25T05:58:22;7.40;;;2.50;;
56718;SDS011;42597;40.636;0.278;2022-08-25T06:00:49;5.70;;;2.13;;
56718;SDS011;42597;40.636;0.278;2022-08-25T06:03:16;5.45;;;2.55;;
56718;SDS011;42597;40.636;0.278;2022-08-25T06:05:41;6.65;;;2.65;;
56718;SDS011;42597;40.636;0.278;2022-08-25T06:08:07;10.68;;;2.97;;
56718;SDS011;42597;40.636;0.278;2022-08-25T06:10:33;6.15;;;2.30;;
56718;SDS011;42597;40.636;0.278;2022-08-25T06:12:59;9.05;;;2.30;;
56718;SDS011;42597;40.636;0.278;2022-08-25T06:15:25;6.78;;;2.63;;
56718;SDS011;42597;40.636;0.278;2022-08-25T06:17:51;7.70;;;2.90;;
56718;SDS011;42597;40.636;0.278;2022-08-25T06:20:18;9.73;;;2.88;;
56718;SDS011;42597;40.636;0.278;2022-08-25T06:25:13;3.83;;;2.22;;
56718;SDS011;42597;40.636;0.278;2022-08-25T06:27:40;7.28;;;2.42;;
56718;SDS011;42597;40.636;0.278;2022-08-25T06:30:07;6.38;;;2.75;;
56718;SDS011;42597;40.636;0.278;2022-08-25T06:35:03;6.10;;;2.25;;
56718;SDS011;42597;40.636;0.278;2022-08-25T06:37:29;6.50;;;2.85;;
56718;SDS011;42597;40.636;0.278;2022-08-25T06:39:55;5.75;;;2.47;;
56718;SDS011;42597;40.636;0.278;2022-08-25T06:42:20;4.13;;;2.28;;
56718;SDS011;42597;40.636;0.278;2022-08-25T06:44:46;8.15;;;3.03;;
56718;SDS011;42597;40.636;0.278;2022-08-25T06:47:12;4.80;;;2.58;;
56718;SDS011;42597;40.636;0.278;2022-08-25T06:49:40;6.22;;;2.95;;
56718;SDS011;42597;40.636;0.278;2022-08-25T06:52:09;9.00;;;3.00;;
56718;SDS011;42597;40.636;0.278;2022-08-25T06:54:34;7.38;;;3.80;;
56718;SDS011;42597;40.636;0.278;2022-08-25T06:57:00;5.63;;;2.20;;
56718;SDS011;42597;40.636;0.278;2022-08-25T06:59:27;6.97;;;2.75;;
56718;SDS011;42597;40.636;0.278;2022-08-25T07:01:52;4.15;;;2.42;;
56718;SDS011;42597;40.636;0.278;2022-08-25T07:04:18;10.05;;;2.42;;
56718;SDS011;42597;40.636;0.278;2022-08-25T07:06:44;5.93;;;2.85;;
56718;SDS011;42597;40.636;0.278;2022-08-25T07:09:10;9.43;;;3.10;;
56718;SDS011;42597;40.636;0.278;2022-08-25T07:11:40;5.93;;;2.83;;
56718;SDS011;42597;40.636;0.278;2022-08-25T07:14:06;6.55;;;4.07;;
56718;SDS011;42597;40.636;0.278;2022-08-25T07:16:34;10.07;;;3.10;;
56718;SDS011;42597;40.636;0.278;2022-08-25T07:19:01;9.57;;;2.85;;
56718;SDS011;42597;40.636;0.278;2022-08-25T07:21:28;4.18;;;2.58;;
56718;SDS011;42597;40.636;0.278;2022-08-25T07:23:55;5.70;;;2.63;;
56718;SDS011;42597;40.636;0.278;2022-08-25T07:26:27;29.63;;;14.60;;
56718;SDS011;42597;40.636;0.278;2022-08-25T07:28:55;17.42;;;8.32;;
56718;SDS011;42597;40.636;0.278;2022-08-25T07:31:23;8.52;;;4.43;;
56718;SDS011;42597;40.636;0.278;2022-08-25T07:33:49;5.57;;;3.03;;
56718;SDS011;42597;40.636;0.278;2022-08-25T07:36:33;6.30;;;2.75;;
56718;SDS011;42597;40.636;0.278;2022-08-25T07:38:59;9.98;;;3.33;;
56718;SDS011;42597;40.636;0.278;2022-08-25T07:41:30;11.25;;;3.95;;
56718;SDS011;42597;40.636;0.278;2022-08-25T07:43:58;7.60;;;3.05;;
56718;SDS011;42597;40.636;0.278;2022-08-25T07:46:23;6.95;;;3.90;;
56718;SDS011;42597;40.636;0.278;2022-08-25T07:48:49;7.38;;;4.13;;
56718;SDS011;42597;40.636;0.278;2022-08-25T07:51:14;13.15;;;4.50;;
56718;SDS011;42597;40.636;0.278;2022-08-25T07:53:40;9.90;;;3.85;;
56718;SDS011;42597;40.636;0.278;2022-08-25T07:56:14;8.65;;;3.15;;
56718;SDS011;42597;40.636;0.278;2022-08-25T07:58:41;4.75;;;2.20;;
56718;SDS011;42597;40.636;0.278;2022-08-25T08:01:12;7.22;;;2.67;;
56718;SDS011;42597;40.636;0.278;2022-08-25T08:03:39;4.82;;;2.50;;
56718;SDS011;42597;40.636;0.278;2022-08-25T08:06:07;8.65;;;3.13;;
56718;SDS011;42597;40.636;0.278;2022-08-25T08:13:43;6.57;;;3.33;;
56718;SDS011;42597;40.636;0.278;2022-08-25T08:16:10;6.38;;;3.20;;
56718;SDS011;42597;40.636;0.278;2022-08-25T08:18:36;7.75;;;3.45;;
56718;SDS011;42597;40.636;0.278;2022-08-25T08:21:02;5.07;;;1.77;;
56718;SDS011;42597;40.636;0.278;2022-08-25T08:23:28;6.97;;;2.30;;
56718;SDS011;42597;40.636;0.278;2022-08-25T08:25:55;5.47;;;1.92;;
56718;SDS011;42597;40.636;0.278;2022-08-25T08:28:21;7.57;;;2.80;;
56718;SDS011;42597;40.636;0.278;2022-08-25T08:30:47;13.23;;;2.08;;
56718;SDS011;42597;40.636;0.278;2022-08-25T08:33:13;8.35;;;2.40;;
56718;SDS011;42597;40.636;0.278;2022-08-25T08:35:39;5.75;;;2.03;;
56718;SDS011;42597;40.636;0.278;2022-08-25T08:38:05;6.55;;;2.75;;
56718;SDS011;42597;40.636;0.278;2022-08-25T08:40:32;4.68;;;2.00;;
56718;SDS011;42597;40.636;0.278;2022-08-25T08:43:08;5.88;;;2.35;;
56718;SDS011;42597;40.636;0.278;2022-08-25T08:45:50;4.03;;;1.90;;
56718;SDS011;42597;40.636;0.278;2022-08-25T08:51:12;4.50;;;2.15;;
56718;SDS011;42597;40.636;0.278;2022-08-25T08:54:13;7.28;;;2.67;;
56718;SDS011;42597;40.636;0.278;2022-08-25T08:56:43;5.82;;;2.40;;
56718;SDS011;42597;40.636;0.278;2022-08-25T08:59:15;3.90;;;1.85;;
56718;SDS011;42597;40.636;0.278;2022-08-25T09:01:49;6.63;;;2.42;;
56718;SDS011;42597;40.636;0.278;2022-08-25T09:07:23;5.60;;;2.15;;
56718;SDS011;42597;40.636;0.278;2022-08-25T09:09:54;5.13;;;2.65;;
56718;SDS011;42597;40.636;0.278;2022-08-25T09:18:50;6.40;;;2.53;;
56718;SDS011;42597;40.636;0.278;2022-08-25T09:21:49;5.70;;;2.60;;
56718;SDS011;42597;40.636;0.278;2022-08-25T09:32:33;6.15;;;2.60;;
56718;SDS011;42597;40.636;0.278;2022-08-25T09:35:02;6.25;;;2.05;;
56718;SDS011;42597;40.636;0.278;2022-08-25T09:37:28;3.58;;;1.92;;
56718;SDS011;42597;40.636;0.278;2022-08-25T09:39:54;7.47;;;2.75;;
56718;SDS011;42597;40.636;0.278;2022-08-25T09:42:20;6.65;;;2.17;;
56718;SDS011;42597;40.636;0.278;2022-08-25T09:44:46;4.50;;;2.38;;
56718;SDS011;42597;40.636;0.278;2022-08-25T09:47:22;9.50;;;2.97;;
56718;SDS011;42597;40.636;0.278;2022-08-25T10:00:14;8.70;;;2.70;;
56718;SDS011;42597;40.636;0.278;2022-08-25T10:02:40;4.85;;;2.35;;
56718;SDS011;42597;40.636;0.278;2022-08-25T10:05:21;7.35;;;2.42;;
56718;SDS011;42597;40.636;0.278;2022-08-25T10:07:57;6.75;;;2.97;;
56718;SDS011;42597;40.636;0.278;2022-08-25T10:10:28;10.45;;;2.83;;
56718;SDS011;42597;40.636;0.278;2022-08-25T10:12:56;5.45;;;2.67;;
56718;SDS011;42597;40.636;0.278;2022-08-25T10:18:15;7.05;;;2.58;;
56718;SDS011;42597;40.636;0.278;2022-08-25T10:23:28;7.18;;;2.15;;
56718;SDS011;42597;40.636;0.278;2022-08-25T10:25:57;7.28;;;2.50;;
56718;SDS011;42597;40.636;0.278;2022-08-25T10:36:16;13.82;;;2.92;;
56718;SDS011;42597;40.636;0.278;2022-08-25T17:51:27;6.65;;;3.08;;
56718;SDS011;42597;40.636;0.278;2022-08-25T17:53:53;5.65;;;3.10;;
56718;SDS011;42597;40.636;0.278;2022-08-25T17:56:20;4.30;;;2.60;;
56718;SDS011;42597;40.636;0.278;2022-08-25T17:58:47;10.50;;;3.83;;
56718;SDS011;42597;40.636;0.278;2022-08-25T18:01:18;5.82;;;2.70;;
56718;SDS011;42597;40.636;0.278;2022-08-25T18:03:45;6.30;;;2.80;;
56718;SDS011;42597;40.636;0.278;2022-08-25T18:06:12;10.52;;;3.25;;
56718;SDS011;42597;40.636;0.278;2022-08-25T18:08:38;6.85;;;2.85;;
56718;SDS011;42597;40.636;0.278;2022-08-25T18:11:04;6.88;;;3.13;;
56718;SDS011;42597;40.636;0.278;2022-08-25T18:13:30;4.82;;;2.75;;
56718;SDS011;42597;40.636;0.278;2022-08-25T18:15:57;4.75;;;2.13;;
56718;SDS011;42597;40.636;0.278;2022-08-25T18:18:23;4.10;;;2.28;;
56718;SDS011;42597;40.636;0.278;2022-08-25T18:20:48;3.40;;;2.10;;
56718;SDS011;42597;40.636;0.278;2022-08-25T18:23:14;4.53;;;2.45;;
56718;SDS011;42597;40.636;0.278;2022-08-25T18:25:40;4.93;;;2.70;;
56718;SDS011;42597;40.636;0.278;2022-08-25T18:28:06;4.68;;;2.40;;
56718;SDS011;42597;40.636;0.278;2022-08-25T18:30:32;6.72;;;2.63;;
56718;SDS011;42597;40.636;0.278;2022-08-25T18:32:58;7.05;;;2.70;;
56718;SDS011;42597;40.636;0.278;2022-08-25T18:35:23;9.55;;;2.88;;
56718;SDS011;42597;40.636;0.278;2022-08-25T18:37:50;5.82;;;2.78;;
56718;SDS011;42597;40.636;0.278;2022-08-25T18:40:34;6.90;;;2.75;;
56718;SDS011;42597;40.636;0.278;2022-08-25T18:43:01;7.40;;;2.92;;
56718;SDS011;42597;40.636;0.278;2022-08-25T18:45:41;6.95;;;3.88;;
56718;SDS011;42597;40.636;0.278;2022-08-25T18:48:08;12.40;;;4.00;;
56718;SDS011;42597;40.636;0.278;2022-08-25T18:50:35;6.05;;;3.50;;
56718;SDS011;42597;40.636;0.278;2022-08-25T18:55:29;9.90;;;3.90;;
56718;SDS011;42597;40.636;0.278;2022-08-25T18:57:54;6.30;;;4.03;;
56718;SDS011;42597;40.636;0.278;2022-08-25T19:00:22;5.70;;;3.55;;
56718;SDS011;42597;40.636;0.278;2022-08-25T19:02:53;11.27;;;3.85;;
56718;SDS011;42597;40.636;0.278;2022-08-25T19:05:24;8.05;;;3.47;;
56718;SDS011;42597;40.636;0.278;2022-08-25T19:07:58;9.25;;;3.63;;
56718;SDS011;42597;40.636;0.278;2022-08-25T19:10:26;6.90;;;3.20;;
56718;SDS011;42597;40.636;0.278;2022-08-25T19:12:54;7.70;;;4.57;;
56718;SDS011;42597;40.636;0.278;2022-08-25T19:15:20;7.00;;;3.58;;
56718;SDS011;42597;40.636;0.278;2022-08-25T19:17:46;6.90;;;4.13;;
56718;SDS011;42597;40.636;0.278;2022-08-25T19:20:11;6.72;;;3.90;;
56718;SDS011;42597;40.636;0.278;2022-08-25T19:22:37;7.85;;;3.95;;
56718;SDS011;42597;40.636;0.278;2022-08-25T19:25:03;8.70;;;4.05;;
56718;SDS011;42597;40.636;0.278;2022-08-25T19:27:30;10.00;;;4.18;;
56718;SDS011;42597;40.636;0.278;2022-08-25T19:29:56;4.82;;;3.42;;
56718;SDS011;42597;40.636;0.278;2022-08-25T19:32:22;8.70;;;3.05;;
56718;SDS011;42597;40.636;0.278;2022-08-25T19:34:47;7.60;;;4.18;;
56718;SDS011;42597;40.636;0.278;2022-08-25T19:37:16;4.63;;;3.30;;
56718;SDS011;42597;40.636;0.278;2022-08-25T19:39:42;7.05;;;3.45;;
56718;SDS011;42597;40.636;0.278;2022-08-25T19:42:11;9.68;;;3.92;;
56718;SDS011;42597;40.636;0.278;2022-08-25T19:44:37;8.80;;;4.18;;
56718;SDS011;42597;40.636;0.278;2022-08-25T19:47:02;9.52;;;3.90;;
56718;SDS011;42597;40.636;0.278;2022-08-25T19:49:30;14.35;;;3.88;;
56718;SDS011;42597;40.636;0.278;2022-08-25T19:51:59;5.68;;;2.85;;
56718;SDS011;42597;40.636;0.278;2022-08-25T19:54:34;6.55;;;3.97;;
56718;SDS011;42597;40.636;0.278;2022-08-25T19:57:03;6.15;;;3.03;;
56718;SDS011;42597;40.636;0.278;2022-08-25T19:59:31;4.85;;;2.83;;
56718;SDS011;42597;40.636;0.278;2022-08-25T20:02:04;3.97;;;2.45;;
56718;SDS011;42597;40.636;0.278;2022-08-25T20:04:31;6.60;;;2.87;;
56718;SDS011;42597;40.636;0.278;2022-08-25T20:06:56;6.13;;;3.00;;
56718;SDS011;42597;40.636;0.278;2022-08-25T20:09:22;8.98;;;2.67;;
56718;SDS011;42597;40.636;0.278;2022-08-25T20:11:49;5.03;;;2.97;;
56718;SDS011;42597;40.636;0.278;2022-08-25T20:14:16;5.70;;;3.05;;
56718;SDS011;42597;40.636;0.278;2022-08-25T20:16:42;7.35;;;3.40;;
56718;SDS011;42597;40.636;0.278;2022-08-25T20:19:08;4.00;;;2.90;;
56718;SDS011;42597;40.636;0.278;2022-08-25T20:21:35;7.28;;;4.00;;
56718;SDS011;42597;40.636;0.278;2022-08-25T20:24:03;5.90;;;2.67;;
56718;SDS011;42597;40.636;0.278;2022-08-25T20:26:48;5.25;;;2.67;;
56718;SDS011;42597;40.636;0.278;2022-08-25T20:29:14;10.07;;;4.97;;
56718;SDS011;42597;40.636;0.278;2022-08-25T20:31:40;10.02;;;4.20;;
56718;SDS011;42597;40.636;0.278;2022-08-25T20:34:05;11.50;;;5.80;;
56718;SDS011;42597;40.636;0.278;2022-08-25T20:36:31;7.03;;;4.13;;
56718;SDS011;42597;40.636;0.278;2022-08-25T20:38:57;9.95;;;5.22;;
56718;SDS011;42597;40.636;0.278;2022-08-25T20:41:23;11.48;;;6.38;;
56718;SDS011;42597;40.636;0.278;2022-08-25T20:43:48;9.55;;;5.15;;
56718;SDS011;42597;40.636;0.278;2022-08-25T20:46:14;14.52;;;5.80;;
56718;SDS011;42597;40.636;0.278;2022-08-25T20:48:40;11.65;;;6.35;;
56718;SDS011;42597;40.636;0.278;2022-08-25T20:51:07;13.07;;;7.47;;
56718;SDS011;42597;40.636;0.278;2022-08-25T20:53:34;14.05;;;5.68;;
56718;SDS011;42597;40.636;0.278;2022-08-25T20:56:05;5.30;;;3.80;;
56718;SDS011;42597;40.636;0.278;2022-08-25T20:58:35;6.95;;;4.65;;
56718;SDS011;42597;40.636;0.278;2022-08-25T21:01:01;10.30;;;5.63;;
56718;SDS011;42597;40.636;0.278;2022-08-25T21:03:27;10.15;;;5.18;;
56718;SDS011;42597;40.636;0.278;2022-08-25T21:05:52;12.43;;;5.82;;
56718;SDS011;42597;40.636;0.278;2022-08-25T21:08:18;11.88;;;4.72;;
56718;SDS011;42597;40.636;0.278;2022-08-25T21:10:44;7.03;;;4.50;;
56718;SDS011;42597;40.636;0.278;2022-08-25T21:13:09;12.50;;;4.93;;
56718;SDS011;42597;40.636;0.278;2022-08-25T21:15:36;9.23;;;5.60;;
56718;SDS011;42597;40.636;0.278;2022-08-25T21:18:04;6.82;;;4.07;;
56718;SDS011;42597;40.636;0.278;2022-08-25T21:20:30;5.90;;;3.55;;
56718;SDS011;42597;40.636;0.278;2022-08-25T21:22:56;9.82;;;4.28;;
56718;SDS011;42597;40.636;0.278;2022-08-25T21:25:22;7.60;;;4.70;;
56718;SDS011;42597;40.636;0.278;2022-08-25T21:27:47;7.15;;;3.60;;
56718;SDS011;42597;40.636;0.278;2022-08-25T21:30:13;7.68;;;3.83;;
56718;SDS011;42597;40.636;0.278;2022-08-25T21:32:38;6.60;;;3.60;;
56718;SDS011;42597;40.636;0.278;2022-08-25T21:35:04;7.78;;;4.45;;
56718;SDS011;42597;40.636;0.278;2022-08-25T21:37:30;8.50;;;4.93;;
56718;SDS011;42597;40.636;0.278;2022-08-25T21:39:56;10.18;;;6.00;;
56718;SDS011;42597;40.636;0.278;2022-08-25T21:42:22;8.25;;;6.38;;
56718;SDS011;42597;40.636;0.278;2022-08-25T21:44:48;13.40;;;6.88;;
56718;SDS011;42597;40.636;0.278;2022-08-25T21:47:15;7.25;;;4.90;;
56718;SDS011;42597;40.636;0.278;2022-08-25T21:49:41;12.32;;;6.35;;
56718;SDS011;42597;40.636;0.278;2022-08-25T21:52:07;10.23;;;7.65;;
56718;SDS011;42597;40.636;0.278;2022-08-25T21:54:33;8.20;;;6.10;;
56718;SDS011;42597;40.636;0.278;2022-08-25T21:56:59;11.68;;;6.82;;
56718;SDS011;42597;40.636;0.278;2022-08-25T21:59:31;10.27;;;7.05;;
56718;SDS011;42597;40.636;0.278;2022-08-25T22:02:02;10.30;;;8.18;;
56718;SDS011;42597;40.636;0.278;2022-08-25T22:04:30;7.68;;;6.43;;
56718;SDS011;42597;40.636;0.278;2022-08-25T22:06:56;10.52;;;7.30;;
56718;SDS011;42597;40.636;0.278;2022-08-25T22:09:22;8.75;;;6.70;;
56718;SDS011;42597;40.636;0.278;2022-08-25T22:11:48;11.40;;;7.00;;
56718;SDS011;42597;40.636;0.278;2022-08-25T22:14:15;13.88;;;6.32;;
56718;SDS011;42597;40.636;0.278;2022-08-25T22:16:41;8.85;;;6.47;;
56718;SDS011;42597;40.636;0.278;2022-08-25T22:19:07;11.73;;;7.38;;
56718;SDS011;42597;40.636;0.278;2022-08-25T22:21:34;8.60;;;5.40;;
56718;SDS011;42597;40.636;0.278;2022-08-25T22:24:01;8.90;;;4.90;;
56718;SDS011;42597;40.636;0.278;2022-08-25T22:26:28;8.35;;;4.68;;
56718;SDS011;42597;40.636;0.278;2022-08-25T22:28:55;6.85;;;3.80;;
56718;SDS011;42597;40.636;0.278;2022-08-25T22:31:22;8.68;;;3.75;;
56718;SDS011;42597;40.636;0.278;2022-08-25T22:33:48;7.05;;;3.45;;
56718;SDS011;42597;40.636;0.278;2022-08-25T22:36:16;9.07;;;4.10;;
56718;SDS011;42597;40.636;0.278;2022-08-25T22:38:45;9.68;;;3.88;;
56718;SDS011;42597;40.636;0.278;2022-08-25T22:41:11;6.20;;;3.80;;
56718;SDS011;42597;40.636;0.278;2022-08-25T22:43:39;8.32;;;3.17;;
56718;SDS011;42597;40.636;0.278;2022-08-25T22:46:05;5.05;;;3.42;;
56718;SDS011;42597;40.636;0.278;2022-08-25T22:48:31;9.13;;;3.55;;
56718;SDS011;42597;40.636;0.278;2022-08-25T22:51:14;6.90;;;3.80;;
56718;SDS011;42597;40.636;0.278;2022-08-25T22:53:42;6.38;;;2.95;;
56718;SDS011;42597;40.636;0.278;2022-08-25T22:56:09;7.65;;;3.28;;
56718;SDS011;42597;40.636;0.278;2022-08-25T22:58:37;9.95;;;3.35;;
56718;SDS011;42597;40.636;0.278;2022-08-25T23:01:03;7.82;;;3.60;;
56718;SDS011;42597;40.636;0.278;2022-08-25T23:03:39;7.25;;;3.65;;
56718;SDS011;42597;40.636;0.278;2022-08-25T23:06:06;4.88;;;3.30;;
56718;SDS011;42597;40.636;0.278;2022-08-25T23:08:36;5.88;;;3.45;;
56718;SDS011;42597;40.636;0.278;2022-08-25T23:11:02;6.60;;;3.85;;
56718;SDS011;42597;40.636;0.278;2022-08-25T23:13:27;4.85;;;2.60;;
56718;SDS011;42597;40.636;0.278;2022-08-25T23:15:53;5.50;;;3.00;;
56718;SDS011;42597;40.636;0.278;2022-08-25T23:18:18;7.43;;;2.90;;
56718;SDS011;42597;40.636;0.278;2022-08-25T23:20:44;5.28;;;3.22;;
56718;SDS011;42597;40.636;0.278;2022-08-25T23:23:28;6.25;;;3.20;;
56718;SDS011;42597;40.636;0.278;2022-08-25T23:25:54;12.25;;;3.70;;
56718;SDS011;42597;40.636;0.278;2022-08-25T23:28:20;7.63;;;3.10;;
56718;SDS011;42597;40.636;0.278;2022-08-25T23:30:46;5.38;;;3.15;;
56718;SDS011;42597;40.636;0.278;2022-08-25T23:33:12;8.55;;;3.80;;
56718;SDS011;42597;40.636;0.278;2022-08-25T23:35:42;5.45;;;3.40;;
56718;SDS011;42597;40.636;0.278;2022-08-25T23:38:09;8.43;;;3.95;;
56718;SDS011;42597;40.636;0.278;2022-08-25T23:40:42;4.43;;;2.80;;
56718;SDS011;42597;40.636;0.278;2022-08-25T23:43:09;7.03;;;3.05;;
56718;SDS011;42597;40.636;0.278;2022-08-25T23:45:35;5.43;;;3.03;;